Ashwood, Mississippi
Current Conditions -  °F | °C
As of 5:15 PM on Tuesday 25 Nov 2014 (Local Time) from KHEZ Reporting Station
Clear Clear  
Wind Chill:   Ceiling: Unl
Heat Index:   Visibility: 10mi
Dew Point: -1°   Wind: 5mph
Humidity: 53%   Direction: 310°NW
Pressure: 30.21"   Gusts: NA
Location:  31.1784°N, 91.3525°W
Report Text: KHEZ 252315Z AUTO 31004KT 10SM CLR 08/M01 A3021 RMK AO1
Loading
Personal Weather Stations






























Interactive Weather Map New forecast layout! Learn more

10-Day Weather Forecast

Advertisements
Track Severe Weather on mobile